sensor_id;sensor_type;location;lat;lon;timestamp;P1;durP1;ratioP1;P2;durP2;ratioP2
26486;SDS011;14425;56.136;40.360;2023-08-30T00:00:44;3.20;;;1.65;;
26486;SDS011;14425;56.136;40.360;2023-08-30T00:03:10;4.57;;;1.52;;
26486;SDS011;14425;56.136;40.360;2023-08-30T00:05:40;3.92;;;1.60;;
26486;SDS011;14425;56.136;40.360;2023-08-30T00:08:06;3.28;;;1.40;;
26486;SDS011;14425;56.136;40.360;2023-08-30T00:10:32;3.05;;;1.40;;
26486;SDS011;14425;56.136;40.360;2023-08-30T00:12:57;1.95;;;1.60;;
26486;SDS011;14425;56.136;40.360;2023-08-30T00:15:23;2.25;;;1.42;;
26486;SDS011;14425;56.136;40.360;2023-08-30T00:17:49;2.90;;;1.40;;
26486;SDS011;14425;56.136;40.360;2023-08-30T00:20:16;2.80;;;1.52;;
26486;SDS011;14425;56.136;40.360;2023-08-30T00:22:42;2.47;;;1.45;;
26486;SDS011;14425;56.136;40.360;2023-08-30T00:25:08;3.00;;;1.63;;
26486;SDS011;14425;56.136;40.360;2023-08-30T00:27:34;2.10;;;1.70;;
26486;SDS011;14425;56.136;40.360;2023-08-30T00:29:59;2.05;;;1.40;;
26486;SDS011;14425;56.136;40.360;2023-08-30T00:32:25;2.20;;;1.50;;
26486;SDS011;14425;56.136;40.360;2023-08-30T00:34:51;2.17;;;1.75;;
26486;SDS011;14425;56.136;40.360;2023-08-30T00:37:16;2.05;;;1.60;;
26486;SDS011;14425;56.136;40.360;2023-08-30T00:39:43;2.72;;;1.70;;
26486;SDS011;14425;56.136;40.360;2023-08-30T00:42:09;1.25;;;1.15;;
26486;SDS011;14425;56.136;40.360;2023-08-30T00:44:35;5.88;;;2.05;;
26486;SDS011;14425;56.136;40.360;2023-08-30T00:47:01;4.03;;;2.00;;
26486;SDS011;14425;56.136;40.360;2023-08-30T00:49:31;2.38;;;1.65;;
26486;SDS011;14425;56.136;40.360;2023-08-30T00:52:01;2.92;;;1.30;;
26486;SDS011;14425;56.136;40.360;2023-08-30T00:54:31;1.67;;;1.58;;
26486;SDS011;14425;56.136;40.360;2023-08-30T00:56:57;1.60;;;1.35;;
26486;SDS011;14425;56.136;40.360;2023-08-30T00:59:23;1.70;;;1.10;;
26486;SDS011;14425;56.136;40.360;2023-08-30T01:01:49;2.75;;;1.83;;
26486;SDS011;14425;56.136;40.360;2023-08-30T01:04:16;2.28;;;1.50;;
26486;SDS011;14425;56.136;40.360;2023-08-30T01:06:43;3.05;;;1.63;;
26486;SDS011;14425;56.136;40.360;2023-08-30T01:09:09;1.02;;;0.93;;
26486;SDS011;14425;56.136;40.360;2023-08-30T01:14:20;1.52;;;1.17;;
26486;SDS011;14425;56.136;40.360;2023-08-30T01:16:49;2.95;;;1.65;;
26486;SDS011;14425;56.136;40.360;2023-08-30T01:22:14;1.98;;;1.25;;
26486;SDS011;14425;56.136;40.360;2023-08-30T01:24:44;1.58;;;1.33;;
26486;SDS011;14425;56.136;40.360;2023-08-30T01:27:20;1.48;;;1.33;;
26486;SDS011;14425;56.136;40.360;2023-08-30T01:29:47;2.28;;;1.42;;
26486;SDS011;14425;56.136;40.360;2023-08-30T01:32:15;2.35;;;1.33;;
26486;SDS011;14425;56.136;40.360;2023-08-30T01:34:41;1.75;;;1.30;;
26486;SDS011;14425;56.136;40.360;2023-08-30T01:37:10;2.13;;;1.40;;
26486;SDS011;14425;56.136;40.360;2023-08-30T01:39:39;2.03;;;1.60;;
26486;SDS011;14425;56.136;40.360;2023-08-30T01:42:06;1.40;;;1.08;;
26486;SDS011;14425;56.136;40.360;2023-08-30T01:44:33;5.57;;;1.70;;
26486;SDS011;14425;56.136;40.360;2023-08-30T01:47:00;2.75;;;1.63;;
26486;SDS011;14425;56.136;40.360;2023-08-30T01:49:29;2.28;;;1.60;;
26486;SDS011;14425;56.136;40.360;2023-08-30T01:51:59;1.67;;;1.40;;
26486;SDS011;14425;56.136;40.360;2023-08-30T01:54:26;1.70;;;1.40;;
26486;SDS011;14425;56.136;40.360;2023-08-30T01:56:54;4.35;;;2.00;;
26486;SDS011;14425;56.136;40.360;2023-08-30T01:59:19;2.50;;;1.77;;
26486;SDS011;14425;56.136;40.360;2023-08-30T02:01:45;2.22;;;1.70;;
26486;SDS011;14425;56.136;40.360;2023-08-30T02:04:10;7.38;;;1.60;;
26486;SDS011;14425;56.136;40.360;2023-08-30T02:06:40;4.30;;;1.80;;
26486;SDS011;14425;56.136;40.360;2023-08-30T02:12:04;3.03;;;2.38;;
26486;SDS011;14425;56.136;40.360;2023-08-30T02:14:32;6.95;;;2.22;;
26486;SDS011;14425;56.136;40.360;2023-08-30T02:17:03;2.45;;;2.10;;
26486;SDS011;14425;56.136;40.360;2023-08-30T02:19:31;2.58;;;2.13;;
26486;SDS011;14425;56.136;40.360;2023-08-30T02:21:57;2.65;;;1.90;;
26486;SDS011;14425;56.136;40.360;2023-08-30T02:24:24;2.50;;;1.85;;
26486;SDS011;14425;56.136;40.360;2023-08-30T02:26:49;3.38;;;2.35;;
26486;SDS011;14425;56.136;40.360;2023-08-30T02:29:15;2.92;;;1.95;;
26486;SDS011;14425;56.136;40.360;2023-08-30T02:31:41;2.55;;;2.05;;
26486;SDS011;14425;56.136;40.360;2023-08-30T02:34:06;2.35;;;2.10;;
26486;SDS011;14425;56.136;40.360;2023-08-30T02:36:32;2.15;;;1.70;;
26486;SDS011;14425;56.136;40.360;2023-08-30T02:38:58;5.28;;;1.90;;
26486;SDS011;14425;56.136;40.360;2023-08-30T02:41:24;5.13;;;1.85;;
26486;SDS011;14425;56.136;40.360;2023-08-30T02:43:49;4.10;;;2.20;;
26486;SDS011;14425;56.136;40.360;2023-08-30T02:46:15;2.53;;;2.00;;
26486;SDS011;14425;56.136;40.360;2023-08-30T02:48:41;3.20;;;2.00;;
26486;SDS011;14425;56.136;40.360;2023-08-30T02:51:06;2.92;;;2.05;;
26486;SDS011;14425;56.136;40.360;2023-08-30T02:53:32;2.38;;;1.75;;
26486;SDS011;14425;56.136;40.360;2023-08-30T02:55:57;3.40;;;1.98;;
26486;SDS011;14425;56.136;40.360;2023-08-30T02:58:23;2.42;;;1.70;;
26486;SDS011;14425;56.136;40.360;2023-08-30T03:00:48;3.05;;;2.15;;
26486;SDS011;14425;56.136;40.360;2023-08-30T03:03:14;2.65;;;1.60;;
26486;SDS011;14425;56.136;40.360;2023-08-30T03:05:40;2.85;;;2.13;;
26486;SDS011;14425;56.136;40.360;2023-08-30T03:08:05;3.03;;;2.05;;
26486;SDS011;14425;56.136;40.360;2023-08-30T03:10:31;13.05;;;9.63;;
26486;SDS011;14425;56.136;40.360;2023-08-30T03:12:57;9.75;;;6.15;;
26486;SDS011;14425;56.136;40.360;2023-08-30T03:15:23;7.97;;;4.60;;
26486;SDS011;14425;56.136;40.360;2023-08-30T03:17:48;5.35;;;3.53;;
26486;SDS011;14425;56.136;40.360;2023-08-30T03:20:14;6.85;;;3.67;;
26486;SDS011;14425;56.136;40.360;2023-08-30T03:22:39;6.30;;;3.15;;
26486;SDS011;14425;56.136;40.360;2023-08-30T03:25:05;5.50;;;3.22;;
26486;SDS011;14425;56.136;40.360;2023-08-30T03:27:32;5.25;;;2.72;;
26486;SDS011;14425;56.136;40.360;2023-08-30T03:29:58;7.70;;;3.45;;
26486;SDS011;14425;56.136;40.360;2023-08-30T03:32:23;8.48;;;4.35;;
26486;SDS011;14425;56.136;40.360;2023-08-30T03:34:49;5.15;;;4.30;;
26486;SDS011;14425;56.136;40.360;2023-08-30T03:37:14;8.55;;;3.22;;
26486;SDS011;14425;56.136;40.360;2023-08-30T03:39:41;4.57;;;3.17;;
26486;SDS011;14425;56.136;40.360;2023-08-30T03:42:07;4.35;;;3.03;;
26486;SDS011;14425;56.136;40.360;2023-08-30T03:44:32;10.30;;;3.97;;
26486;SDS011;14425;56.136;40.360;2023-08-30T03:46:58;6.85;;;3.97;;
26486;SDS011;14425;56.136;40.360;2023-08-30T03:49:24;5.47;;;3.03;;
26486;SDS011;14425;56.136;40.360;2023-08-30T03:51:50;7.22;;;3.70;;
26486;SDS011;14425;56.136;40.360;2023-08-30T03:54:15;5.03;;;3.05;;
26486;SDS011;14425;56.136;40.360;2023-08-30T03:56:44;4.95;;;3.80;;
26486;SDS011;14425;56.136;40.360;2023-08-30T03:59:11;5.38;;;4.03;;
26486;SDS011;14425;56.136;40.360;2023-08-30T04:01:37;4.43;;;3.38;;
26486;SDS011;14425;56.136;40.360;2023-08-30T04:04:02;4.82;;;3.63;;
26486;SDS011;14425;56.136;40.360;2023-08-30T04:06:28;5.80;;;3.85;;
26486;SDS011;14425;56.136;40.360;2023-08-30T04:08:54;3.78;;;3.00;;
26486;SDS011;14425;56.136;40.360;2023-08-30T04:11:19;6.63;;;3.53;;
26486;SDS011;14425;56.136;40.360;2023-08-30T04:13:45;7.40;;;3.25;;
26486;SDS011;14425;56.136;40.360;2023-08-30T04:16:11;11.20;;;5.25;;
26486;SDS011;14425;56.136;40.360;2023-08-30T04:18:36;6.78;;;4.32;;
26486;SDS011;14425;56.136;40.360;2023-08-30T04:21:04;16.33;;;4.65;;
26486;SDS011;14425;56.136;40.360;2023-08-30T04:23:31;5.15;;;4.00;;
26486;SDS011;14425;56.136;40.360;2023-08-30T04:25:57;10.55;;;4.00;;
26486;SDS011;14425;56.136;40.360;2023-08-30T04:28:22;6.40;;;3.53;;
26486;SDS011;14425;56.136;40.360;2023-08-30T04:30:48;5.45;;;3.35;;
26486;SDS011;14425;56.136;40.360;2023-08-30T04:33:13;5.03;;;3.20;;
26486;SDS011;14425;56.136;40.360;2023-08-30T04:35:39;6.63;;;4.10;;
26486;SDS011;14425;56.136;40.360;2023-08-30T04:38:05;6.47;;;4.10;;
26486;SDS011;14425;56.136;40.360;2023-08-30T04:40:31;5.85;;;3.60;;
26486;SDS011;14425;56.136;40.360;2023-08-30T04:42:58;5.90;;;3.53;;
26486;SDS011;14425;56.136;40.360;2023-08-30T04:45:24;6.43;;;3.25;;
26486;SDS011;14425;56.136;40.360;2023-08-30T04:47:50;6.63;;;3.15;;
26486;SDS011;14425;56.136;40.360;2023-08-30T04:50:15;6.45;;;2.90;;
26486;SDS011;14425;56.136;40.360;2023-08-30T04:52:42;4.60;;;2.65;;
26486;SDS011;14425;56.136;40.360;2023-08-30T04:55:08;5.47;;;3.47;;
26486;SDS011;14425;56.136;40.360;2023-08-30T04:57:34;7.57;;;3.17;;
26486;SDS011;14425;56.136;40.360;2023-08-30T04:59:59;10.43;;;4.22;;
26486;SDS011;14425;56.136;40.360;2023-08-30T05:02:32;6.78;;;3.15;;
26486;SDS011;14425;56.136;40.360;2023-08-30T05:04:58;6.88;;;3.80;;
26486;SDS011;14425;56.136;40.360;2023-08-30T05:07:23;5.50;;;3.33;;
26486;SDS011;14425;56.136;40.360;2023-08-30T05:09:49;11.52;;;4.10;;
26486;SDS011;14425;56.136;40.360;2023-08-30T05:12:14;8.38;;;4.35;;
26486;SDS011;14425;56.136;40.360;2023-08-30T05:14:40;5.85;;;3.75;;
26486;SDS011;14425;56.136;40.360;2023-08-30T05:17:06;6.68;;;4.00;;
26486;SDS011;14425;56.136;40.360;2023-08-30T05:19:32;7.97;;;4.50;;
26486;SDS011;14425;56.136;40.360;2023-08-30T05:21:58;7.82;;;6.22;;
26486;SDS011;14425;56.136;40.360;2023-08-30T05:24:24;13.68;;;5.10;;
26486;SDS011;14425;56.136;40.360;2023-08-30T05:26:51;10.13;;;4.75;;
26486;SDS011;14425;56.136;40.360;2023-08-30T05:29:17;10.52;;;4.75;;
26486;SDS011;14425;56.136;40.360;2023-08-30T05:31:43;9.63;;;5.50;;
26486;SDS011;14425;56.136;40.360;2023-08-30T05:34:09;10.52;;;6.10;;
26486;SDS011;14425;56.136;40.360;2023-08-30T05:36:35;14.23;;;7.25;;
26486;SDS011;14425;56.136;40.360;2023-08-30T05:39:00;12.63;;;6.95;;
26486;SDS011;14425;56.136;40.360;2023-08-30T05:41:27;15.48;;;7.35;;
26486;SDS011;14425;56.136;40.360;2023-08-30T05:43:53;11.82;;;6.53;;
26486;SDS011;14425;56.136;40.360;2023-08-30T05:46:19;9.88;;;6.85;;
26486;SDS011;14425;56.136;40.360;2023-08-30T05:48:44;5.80;;;4.13;;
26486;SDS011;14425;56.136;40.360;2023-08-30T05:51:10;10.90;;;7.53;;
26486;SDS011;14425;56.136;40.360;2023-08-30T05:53:35;11.73;;;7.85;;
26486;SDS011;14425;56.136;40.360;2023-08-30T05:56:02;14.00;;;7.20;;
26486;SDS011;14425;56.136;40.360;2023-08-30T05:58:28;6.03;;;4.35;;
26486;SDS011;14425;56.136;40.360;2023-08-30T06:00:54;11.82;;;8.18;;
26486;SDS011;14425;56.136;40.360;2023-08-30T06:03:21;14.27;;;6.95;;
26486;SDS011;14425;56.136;40.360;2023-08-30T06:05:47;10.38;;;7.28;;
26486;SDS011;14425;56.136;40.360;2023-08-30T06:08:14;16.90;;;8.80;;
26486;SDS011;14425;56.136;40.360;2023-08-30T06:10:40;24.40;;;9.43;;
26486;SDS011;14425;56.136;40.360;2023-08-30T06:13:05;16.35;;;7.93;;
26486;SDS011;14425;56.136;40.360;2023-08-30T06:15:31;14.40;;;8.50;;
26486;SDS011;14425;56.136;40.360;2023-08-30T06:17:57;13.70;;;9.23;;
26486;SDS011;14425;56.136;40.360;2023-08-30T06:20:24;15.57;;;9.40;;
26486;SDS011;14425;56.136;40.360;2023-08-30T06:22:49;43.42;;;38.70;;
26486;SDS011;14425;56.136;40.360;2023-08-30T06:25:15;44.03;;;38.58;;
26486;SDS011;14425;56.136;40.360;2023-08-30T06:27:41;20.88;;;18.33;;
26486;SDS011;14425;56.136;40.360;2023-08-30T06:30:10;28.85;;;24.38;;
26486;SDS011;14425;56.136;40.360;2023-08-30T06:32:36;24.10;;;19.13;;
26486;SDS011;14425;56.136;40.360;2023-08-30T06:35:02;23.52;;;17.33;;
26486;SDS011;14425;56.136;40.360;2023-08-30T06:37:29;20.55;;;14.07;;
26486;SDS011;14425;56.136;40.360;2023-08-30T06:39:55;17.02;;;11.45;;
26486;SDS011;14425;56.136;40.360;2023-08-30T06:42:20;14.25;;;11.52;;
26486;SDS011;14425;56.136;40.360;2023-08-30T06:44:46;17.23;;;9.93;;
26486;SDS011;14425;56.136;40.360;2023-08-30T06:47:12;17.27;;;9.45;;
26486;SDS011;14425;56.136;40.360;2023-08-30T06:49:37;16.95;;;9.40;;
26486;SDS011;14425;56.136;40.360;2023-08-30T06:52:05;15.68;;;10.40;;
26486;SDS011;14425;56.136;40.360;2023-08-30T06:54:34;23.10;;;8.45;;
26486;SDS011;14425;56.136;40.360;2023-08-30T06:57:01;14.45;;;7.78;;
26486;SDS011;14425;56.136;40.360;2023-08-30T06:59:27;21.88;;;9.65;;
26486;SDS011;14425;56.136;40.360;2023-08-30T07:01:53;15.00;;;8.00;;
26486;SDS011;14425;56.136;40.360;2023-08-30T07:04:19;12.50;;;8.50;;
26486;SDS011;14425;56.136;40.360;2023-08-30T07:06:45;19.92;;;8.60;;
26486;SDS011;14425;56.136;40.360;2023-08-30T07:09:11;17.23;;;10.18;;
26486;SDS011;14425;56.136;40.360;2023-08-30T07:11:41;12.38;;;7.25;;
26486;SDS011;14425;56.136;40.360;2023-08-30T07:14:09;25.50;;;9.55;;
26486;SDS011;14425;56.136;40.360;2023-08-30T07:16:35;16.63;;;8.23;;
26486;SDS011;14425;56.136;40.360;2023-08-30T07:19:01;13.55;;;6.65;;
26486;SDS011;14425;56.136;40.360;2023-08-30T07:21:27;16.67;;;8.35;;
26486;SDS011;14425;56.136;40.360;2023-08-30T07:23:53;10.85;;;6.90;;
26486;SDS011;14425;56.136;40.360;2023-08-30T07:26:18;14.07;;;7.13;;
26486;SDS011;14425;56.136;40.360;2023-08-30T07:28:44;17.42;;;7.43;;
26486;SDS011;14425;56.136;40.360;2023-08-30T07:31:10;17.45;;;9.40;;
26486;SDS011;14425;56.136;40.360;2023-08-30T07:33:38;15.52;;;6.97;;
26486;SDS011;14425;56.136;40.360;2023-08-30T07:36:04;20.98;;;6.00;;
26486;SDS011;14425;56.136;40.360;2023-08-30T07:38:30;15.85;;;7.53;;
26486;SDS011;14425;56.136;40.360;2023-08-30T07:40:56;18.45;;;8.15;;
26486;SDS011;14425;56.136;40.360;2023-08-30T07:43:22;14.15;;;8.68;;
26486;SDS011;14425;56.136;40.360;2023-08-30T07:45:47;22.13;;;9.90;;
26486;SDS011;14425;56.136;40.360;2023-08-30T07:48:13;17.10;;;7.47;;
26486;SDS011;14425;56.136;40.360;2023-08-30T07:50:38;14.07;;;7.90;;
26486;SDS011;14425;56.136;40.360;2023-08-30T07:53:04;15.50;;;8.38;;
26486;SDS011;14425;56.136;40.360;2023-08-30T07:55:29;13.13;;;7.60;;
26486;SDS011;14425;56.136;40.360;2023-08-30T07:57:55;10.18;;;6.20;;
26486;SDS011;14425;56.136;40.360;2023-08-30T08:00:21;12.00;;;8.18;;
26486;SDS011;14425;56.136;40.360;2023-08-30T08:02:46;11.35;;;6.30;;
26486;SDS011;14425;56.136;40.360;2023-08-30T08:05:12;19.45;;;8.63;;
26486;SDS011;14425;56.136;40.360;2023-08-30T08:07:38;10.70;;;7.38;;
26486;SDS011;14425;56.136;40.360;2023-08-30T08:10:06;17.98;;;8.25;;
26486;SDS011;14425;56.136;40.360;2023-08-30T08:12:32;15.48;;;7.93;;
26486;SDS011;14425;56.136;40.360;2023-08-30T08:14:58;15.05;;;7.10;;
26486;SDS011;14425;56.136;40.360;2023-08-30T08:17:24;16.38;;;7.43;;
26486;SDS011;14425;56.136;40.360;2023-08-30T08:19:50;18.90;;;9.45;;
26486;SDS011;14425;56.136;40.360;2023-08-30T08:22:15;13.73;;;7.63;;
26486;SDS011;14425;56.136;40.360;2023-08-30T08:24:41;10.27;;;6.43;;
26486;SDS011;14425;56.136;40.360;2023-08-30T08:27:08;10.48;;;6.13;;
26486;SDS011;14425;56.136;40.360;2023-08-30T08:29:34;14.02;;;6.25;;
26486;SDS011;14425;56.136;40.360;2023-08-30T08:32:00;10.00;;;5.93;;
26486;SDS011;14425;56.136;40.360;2023-08-30T08:34:26;13.25;;;6.30;;
26486;SDS011;14425;56.136;40.360;2023-08-30T08:36:51;14.70;;;7.32;;
26486;SDS011;14425;56.136;40.360;2023-08-30T08:39:17;12.73;;;7.40;;
26486;SDS011;14425;56.136;40.360;2023-08-30T08:41:44;12.10;;;6.97;;
26486;SDS011;14425;56.136;40.360;2023-08-30T08:44:13;15.50;;;6.97;;
26486;SDS011;14425;56.136;40.360;2023-08-30T08:46:41;16.33;;;6.88;;
26486;SDS011;14425;56.136;40.360;2023-08-30T08:49:14;11.63;;;5.85;;
26486;SDS011;14425;56.136;40.360;2023-08-30T08:51:41;12.77;;;7.05;;
26486;SDS011;14425;56.136;40.360;2023-08-30T08:54:09;14.98;;;7.50;;
26486;SDS011;14425;56.136;40.360;2023-08-30T08:56:35;11.65;;;7.28;;
26486;SDS011;14425;56.136;40.360;2023-08-30T08:59:02;12.73;;;7.28;;
26486;SDS011;14425;56.136;40.360;2023-08-30T09:01:28;17.13;;;7.22;;
26486;SDS011;14425;56.136;40.360;2023-08-30T09:03:54;11.55;;;7.03;;
26486;SDS011;14425;56.136;40.360;2023-08-30T09:06:20;13.48;;;7.68;;
26486;SDS011;14425;56.136;40.360;2023-08-30T09:08:47;14.75;;;6.75;;
26486;SDS011;14425;56.136;40.360;2023-08-30T09:11:13;15.50;;;7.50;;
26486;SDS011;14425;56.136;40.360;2023-08-30T09:13:39;15.23;;;6.78;;
26486;SDS011;14425;56.136;40.360;2023-08-30T09:16:11;11.98;;;7.45;;
26486;SDS011;14425;56.136;40.360;2023-08-30T09:18:41;12.30;;;7.63;;
26486;SDS011;14425;56.136;40.360;2023-08-30T09:21:08;16.23;;;9.25;;
26486;SDS011;14425;56.136;40.360;2023-08-30T09:23:34;20.83;;;8.35;;
26486;SDS011;14425;56.136;40.360;2023-08-30T09:26:00;22.42;;;7.22;;
26486;SDS011;14425;56.136;40.360;2023-08-30T09:28:27;14.45;;;7.90;;
26486;SDS011;14425;56.136;40.360;2023-08-30T09:30:53;12.52;;;7.50;;
26486;SDS011;14425;56.136;40.360;2023-08-30T09:33:22;11.38;;;7.00;;
26486;SDS011;14425;56.136;40.360;2023-08-30T09:35:51;11.50;;;7.32;;
26486;SDS011;14425;56.136;40.360;2023-08-30T09:38:17;13.52;;;6.70;;
26486;SDS011;14425;56.136;40.360;2023-08-30T09:40:44;11.68;;;7.13;;
26486;SDS011;14425;56.136;40.360;2023-08-30T09:43:11;12.32;;;6.63;;
26486;SDS011;14425;56.136;40.360;2023-08-30T09:45:37;12.32;;;7.10;;
26486;SDS011;14425;56.136;40.360;2023-08-30T09:48:03;14.38;;;7.45;;
26486;SDS011;14425;56.136;40.360;2023-08-30T09:50:32;14.23;;;7.38;;
26486;SDS011;14425;56.136;40.360;2023-08-30T09:53:02;10.63;;;5.65;;
26486;SDS011;14425;56.136;40.360;2023-08-30T09:55:33;10.40;;;6.13;;
26486;SDS011;14425;56.136;40.360;2023-08-30T09:58:01;13.18;;;6.38;;
26486;SDS011;14425;56.136;40.360;2023-08-30T10:00:27;13.10;;;8.27;;
26486;SDS011;14425;56.136;40.360;2023-08-30T10:02:54;10.95;;;5.70;;
26486;SDS011;14425;56.136;40.360;2023-08-30T10:05:20;9.35;;;5.68;;
26486;SDS011;14425;56.136;40.360;2023-08-30T10:07:46;11.57;;;6.45;;
26486;SDS011;14425;56.136;40.360;2023-08-30T10:10:12;15.00;;;6.80;;
26486;SDS011;14425;56.136;40.360;2023-08-30T10:12:38;14.35;;;7.07;;
26486;SDS011;14425;56.136;40.360;2023-08-30T10:15:06;15.05;;;7.13;;
26486;SDS011;14425;56.136;40.360;2023-08-30T10:17:32;9.70;;;6.68;;
26486;SDS011;14425;56.136;40.360;2023-08-30T10:20:03;11.50;;;5.82;;
26486;SDS011;14425;56.136;40.360;2023-08-30T10:22:30;11.05;;;7.15;;
26486;SDS011;14425;56.136;40.360;2023-08-30T10:24:58;17.52;;;11.73;;
26486;SDS011;14425;56.136;40.360;2023-08-30T10:27:31;14.73;;;9.68;;
26486;SDS011;14425;56.136;40.360;2023-08-30T10:29:58;14.77;;;7.80;;
26486;SDS011;14425;56.136;40.360;2023-08-30T10:32:26;14.95;;;8.60;;
26486;SDS011;14425;56.136;40.360;2023-08-30T10:34:51;13.63;;;7.25;;
26486;SDS011;14425;56.136;40.360;2023-08-30T10:37:23;7.50;;;6.32;;
26486;SDS011;14425;56.136;40.360;2023-08-30T10:39:51;9.50;;;5.68;;
26486;SDS011;14425;56.136;40.360;2023-08-30T10:42:21;10.40;;;6.32;;
26486;SDS011;14425;56.136;40.360;2023-08-30T10:44:51;10.00;;;6.33;;
26486;SDS011;14425;56.136;40.360;2023-08-30T10:47:29;10.75;;;6.65;;
26486;SDS011;14425;56.136;40.360;2023-08-30T10:49:57;7.88;;;5.65;;
26486;SDS011;14425;56.136;40.360;2023-08-30T10:52:25;9.63;;;6.57;;
26486;SDS011;14425;56.136;40.360;2023-08-30T10:55:04;11.75;;;5.63;;
26486;SDS011;14425;56.136;40.360;2023-08-30T10:57:37;7.28;;;4.93;;
26486;SDS011;14425;56.136;40.360;2023-08-30T11:00:40;9.65;;;5.55;;
26486;SDS011;14425;56.136;40.360;2023-08-30T11:03:10;8.32;;;5.88;;
26486;SDS011;14425;56.136;40.360;2023-08-30T11:05:40;9.45;;;5.57;;
26486;SDS011;14425;56.136;40.360;2023-08-30T11:08:11;7.47;;;4.45;;
26486;SDS011;14425;56.136;40.360;2023-08-30T11:10:37;6.03;;;4.45;;
26486;SDS011;14425;56.136;40.360;2023-08-30T11:13:07;8.27;;;4.97;;
26486;SDS011;14425;56.136;40.360;2023-08-30T11:15:33;11.95;;;4.88;;
26486;SDS011;14425;56.136;40.360;2023-08-30T11:18:02;5.88;;;3.95;;
26486;SDS011;14425;56.136;40.360;2023-08-30T11:20:28;6.15;;;3.90;;
26486;SDS011;14425;56.136;40.360;2023-08-30T11:22:54;6.25;;;4.63;;
26486;SDS011;14425;56.136;40.360;2023-08-30T11:25:20;4.00;;;3.13;;
26486;SDS011;14425;56.136;40.360;2023-08-30T11:27:46;4.65;;;3.83;;
26486;SDS011;14425;56.136;40.360;2023-08-30T11:30:12;4.30;;;3.63;;
26486;SDS011;14425;56.136;40.360;2023-08-30T11:32:39;5.05;;;3.70;;
26486;SDS011;14425;56.136;40.360;2023-08-30T11:35:05;6.50;;;3.28;;
26486;SDS011;14425;56.136;40.360;2023-08-30T11:37:33;4.35;;;3.55;;
26486;SDS011;14425;56.136;40.360;2023-08-30T11:40:00;4.95;;;3.00;;
26486;SDS011;14425;56.136;40.360;2023-08-30T11:42:32;4.15;;;2.95;;
26486;SDS011;14425;56.136;40.360;2023-08-30T11:44:58;3.00;;;2.70;;
26486;SDS011;14425;56.136;40.360;2023-08-30T11:47:25;3.22;;;2.55;;
26486;SDS011;14425;56.136;40.360;2023-08-30T11:49:54;3.70;;;2.58;;
26486;SDS011;14425;56.136;40.360;2023-08-30T11:52:21;5.35;;;2.65;;
26486;SDS011;14425;56.136;40.360;2023-08-30T11:54:48;4.10;;;2.72;;
26486;SDS011;14425;56.136;40.360;2023-08-30T11:57:15;3.97;;;2.50;;
26486;SDS011;14425;56.136;40.360;2023-08-30T11:59:40;3.47;;;2.58;;
26486;SDS011;14425;56.136;40.360;2023-08-30T12:02:06;4.53;;;2.13;;
26486;SDS011;14425;56.136;40.360;2023-08-30T12:04:32;4.28;;;2.00;;
26486;SDS011;14425;56.136;40.360;2023-08-30T12:07:04;3.65;;;2.47;;
26486;SDS011;14425;56.136;40.360;2023-08-30T12:09:36;3.60;;;2.00;;
26486;SDS011;14425;56.136;40.360;2023-08-30T12:12:06;3.95;;;2.40;;
26486;SDS011;14425;56.136;40.360;2023-08-30T12:14:35;3.10;;;2.20;;
26486;SDS011;14425;56.136;40.360;2023-08-30T12:17:01;8.40;;;2.17;;
26486;SDS011;14425;56.136;40.360;2023-08-30T12:19:29;4.35;;;1.95;;
26486;SDS011;14425;56.136;40.360;2023-08-30T12:21:54;4.93;;;1.73;;
26486;SDS011;14425;56.136;40.360;2023-08-30T12:24:20;1.80;;;1.70;;
26486;SDS011;14425;56.136;40.360;2023-08-30T12:26:48;5.95;;;1.98;;
26486;SDS011;14425;56.136;40.360;2023-08-30T12:29:13;5.20;;;1.70;;
26486;SDS011;14425;56.136;40.360;2023-08-30T12:31:39;3.40;;;1.67;;
26486;SDS011;14425;56.136;40.360;2023-08-30T12:34:05;3.15;;;1.17;;
26486;SDS011;14425;56.136;40.360;2023-08-30T12:36:30;3.78;;;1.67;;
26486;SDS011;14425;56.136;40.360;2023-08-30T12:38:57;1.65;;;1.35;;
26486;SDS011;14425;56.136;40.360;2023-08-30T12:41:22;2.47;;;1.48;;
26486;SDS011;14425;56.136;40.360;2023-08-30T12:43:48;2.05;;;1.77;;
26486;SDS011;14425;56.136;40.360;2023-08-30T12:46:15;2.15;;;1.95;;
26486;SDS011;14425;56.136;40.360;2023-08-30T12:48:41;3.15;;;1.20;;
26486;SDS011;14425;56.136;40.360;2023-08-30T12:51:06;4.25;;;1.73;;
26486;SDS011;14425;56.136;40.360;2023-08-30T12:53:32;3.15;;;1.60;;
26486;SDS011;14425;56.136;40.360;2023-08-30T12:55:58;5.53;;;1.67;;
26486;SDS011;14425;56.136;40.360;2023-08-30T12:58:24;6.57;;;2.33;;
26486;SDS011;14425;56.136;40.360;2023-08-30T13:00:49;1.73;;;1.30;;
26486;SDS011;14425;56.136;40.360;2023-08-30T13:03:18;2.90;;;2.08;;
26486;SDS011;14425;56.136;40.360;2023-08-30T13:05:44;3.25;;;1.55;;
26486;SDS011;14425;56.136;40.360;2023-08-30T13:08:09;9.90;;;2.00;;
26486;SDS011;14425;56.136;40.360;2023-08-30T13:10:35;1.48;;;1.30;;
26486;SDS011;14425;56.136;40.360;2023-08-30T13:13:00;2.92;;;1.60;;
26486;SDS011;14425;56.136;40.360;2023-08-30T13:15:26;4.03;;;1.60;;
26486;SDS011;14425;56.136;40.360;2023-08-30T13:17:51;1.40;;;1.02;;
26486;SDS011;14425;56.136;40.360;2023-08-30T13:20:17;1.95;;;1.30;;
26486;SDS011;14425;56.136;40.360;2023-08-30T13:22:43;1.88;;;1.38;;
26486;SDS011;14425;56.136;40.360;2023-08-30T13:25:09;1.98;;;1.77;;
26486;SDS011;14425;56.136;40.360;2023-08-30T13:27:34;4.03;;;1.48;;
26486;SDS011;14425;56.136;40.360;2023-08-30T13:30:00;1.88;;;1.42;;
26486;SDS011;14425;56.136;40.360;2023-08-30T13:32:26;4.38;;;2.25;;
26486;SDS011;14425;56.136;40.360;2023-08-30T13:34:52;2.38;;;2.17;;
26486;SDS011;14425;56.136;40.360;2023-08-30T13:37:18;3.63;;;2.17;;
26486;SDS011;14425;56.136;40.360;2023-08-30T13:39:43;3.65;;;3.03;;
26486;SDS011;14425;56.136;40.360;2023-08-30T13:42:09;4.40;;;3.42;;
26486;SDS011;14425;56.136;40.360;2023-08-30T13:44:36;8.40;;;4.00;;
26486;SDS011;14425;56.136;40.360;2023-08-30T13:49:32;5.27;;;4.13;;
26486;SDS011;14425;56.136;40.360;2023-08-30T13:51:57;4.38;;;3.95;;
26486;SDS011;14425;56.136;40.360;2023-08-30T13:54:24;6.95;;;3.85;;
26486;SDS011;14425;56.136;40.360;2023-08-30T13:56:50;5.70;;;4.28;;
26486;SDS011;14425;56.136;40.360;2023-08-30T13:59:15;6.07;;;4.22;;
26486;SDS011;14425;56.136;40.360;2023-08-30T14:01:41;5.72;;;4.50;;
26486;SDS011;14425;56.136;40.360;2023-08-30T14:04:08;5.97;;;4.65;;
26486;SDS011;14425;56.136;40.360;2023-08-30T14:06:33;7.57;;;5.28;;
26486;SDS011;14425;56.136;40.360;2023-08-30T14:08:59;6.80;;;4.80;;
26486;SDS011;14425;56.136;40.360;2023-08-30T14:11:26;8.27;;;5.63;;
26486;SDS011;14425;56.136;40.360;2023-08-30T14:13:52;6.32;;;5.25;;
26486;SDS011;14425;56.136;40.360;2023-08-30T14:16:17;11.35;;;5.50;;
26486;SDS011;14425;56.136;40.360;2023-08-30T14:18:43;8.70;;;5.28;;
26486;SDS011;14425;56.136;40.360;2023-08-30T14:21:09;6.25;;;4.80;;
26486;SDS011;14425;56.136;40.360;2023-08-30T14:23:35;6.13;;;5.35;;
26486;SDS011;14425;56.136;40.360;2023-08-30T14:26:02;6.72;;;4.95;;
26486;SDS011;14425;56.136;40.360;2023-08-30T14:28:34;13.13;;;5.90;;
26486;SDS011;14425;56.136;40.360;2023-08-30T14:30:59;7.00;;;5.45;;
26486;SDS011;14425;56.136;40.360;2023-08-30T14:33:25;5.93;;;4.78;;
26486;SDS011;14425;56.136;40.360;2023-08-30T14:35:50;9.23;;;4.63;;